sensor_id;sensor_type;location;lat;lon;timestamp;P1;durP1;ratioP1;P2;durP2;ratioP2
20383;SDS011;46458;50.966;7.002;2023-08-01T00:01:15;2.65;;;1.30;;
20383;SDS011;46458;50.966;7.002;2023-08-01T00:03:48;2.22;;;1.45;;
20383;SDS011;46458;50.966;7.002;2023-08-01T00:06:19;2.72;;;1.50;;
20383;SDS011;46458;50.966;7.002;2023-08-01T00:08:51;1.83;;;1.42;;
20383;SDS011;46458;50.966;7.002;2023-08-01T00:11:19;2.20;;;1.40;;
20383;SDS011;46458;50.966;7.002;2023-08-01T00:13:51;1.55;;;1.20;;
20383;SDS011;46458;50.966;7.002;2023-08-01T00:16:20;2.40;;;1.15;;
20383;SDS011;46458;50.966;7.002;2023-08-01T00:18:52;2.72;;;1.10;;
20383;SDS011;46458;50.966;7.002;2023-08-01T00:21:24;2.08;;;1.48;;
20383;SDS011;46458;50.966;7.002;2023-08-01T00:23:53;4.30;;;1.27;;
20383;SDS011;46458;50.966;7.002;2023-08-01T00:26:21;1.73;;;1.58;;
20383;SDS011;46458;50.966;7.002;2023-08-01T00:28:50;2.53;;;1.45;;
20383;SDS011;46458;50.966;7.002;2023-08-01T00:31:19;3.47;;;1.85;;
20383;SDS011;46458;50.966;7.002;2023-08-01T00:33:50;2.13;;;1.48;;
20383;SDS011;46458;50.966;7.002;2023-08-01T00:36:19;1.95;;;1.55;;
20383;SDS011;46458;50.966;7.002;2023-08-01T00:38:48;1.85;;;1.65;;
20383;SDS011;46458;50.966;7.002;2023-08-01T00:41:21;1.70;;;1.42;;
20383;SDS011;46458;50.966;7.002;2023-08-01T00:43:49;3.83;;;1.38;;
20383;SDS011;46458;50.966;7.002;2023-08-01T00:46:18;1.50;;;1.10;;
20383;SDS011;46458;50.966;7.002;2023-08-01T00:48:47;1.10;;;1.00;;
20383;SDS011;46458;50.966;7.002;2023-08-01T00:51:19;3.13;;;1.48;;
20383;SDS011;46458;50.966;7.002;2023-08-01T00:53:48;1.33;;;1.23;;
20383;SDS011;46458;50.966;7.002;2023-08-01T00:56:20;3.47;;;1.40;;
20383;SDS011;46458;50.966;7.002;2023-08-01T00:58:49;1.10;;;1.00;;
20383;SDS011;46458;50.966;7.002;2023-08-01T01:01:18;1.67;;;1.30;;
20383;SDS011;46458;50.966;7.002;2023-08-01T01:03:47;4.57;;;1.25;;
20383;SDS011;46458;50.966;7.002;2023-08-01T01:06:20;1.60;;;0.98;;
20383;SDS011;46458;50.966;7.002;2023-08-01T01:08:52;3.80;;;1.20;;
20383;SDS011;46458;50.966;7.002;2023-08-01T01:11:21;1.30;;;1.10;;
20383;SDS011;46458;50.966;7.002;2023-08-01T01:13:50;1.65;;;1.30;;
20383;SDS011;46458;50.966;7.002;2023-08-01T01:16:20;1.23;;;1.10;;
20383;SDS011;46458;50.966;7.002;2023-08-01T01:18:48;2.40;;;0.80;;
20383;SDS011;46458;50.966;7.002;2023-08-01T01:21:20;1.80;;;0.82;;
20383;SDS011;46458;50.966;7.002;2023-08-01T01:23:50;2.25;;;0.68;;
20383;SDS011;46458;50.966;7.002;2023-08-01T01:26:23;1.60;;;0.88;;
20383;SDS011;46458;50.966;7.002;2023-08-01T01:28:51;0.88;;;0.80;;
20383;SDS011;46458;50.966;7.002;2023-08-01T01:31:23;1.88;;;0.90;;
20383;SDS011;46458;50.966;7.002;2023-08-01T01:33:52;2.55;;;0.70;;
20383;SDS011;46458;50.966;7.002;2023-08-01T01:36:25;3.13;;;0.80;;
20383;SDS011;46458;50.966;7.002;2023-08-01T01:38:54;0.85;;;0.77;;
20383;SDS011;46458;50.966;7.002;2023-08-01T01:41:25;0.70;;;0.63;;
20383;SDS011;46458;50.966;7.002;2023-08-01T01:43:56;0.95;;;0.50;;
20383;SDS011;46458;50.966;7.002;2023-08-01T01:46:24;0.90;;;0.30;;
20383;SDS011;46458;50.966;7.002;2023-08-01T01:48:56;0.77;;;0.60;;
20383;SDS011;46458;50.966;7.002;2023-08-01T01:51:28;2.25;;;0.50;;
20383;SDS011;46458;50.966;7.002;2023-08-01T01:53:58;0.68;;;0.45;;
20383;SDS011;46458;50.966;7.002;2023-08-01T01:56:27;2.72;;;1.98;;
20383;SDS011;46458;50.966;7.002;2023-08-01T01:58:55;1.15;;;0.63;;
20383;SDS011;46458;50.966;7.002;2023-08-01T02:01:24;0.70;;;0.50;;
20383;SDS011;46458;50.966;7.002;2023-08-01T02:03:53;0.75;;;0.50;;
20383;SDS011;46458;50.966;7.002;2023-08-01T02:06:22;1.35;;;0.40;;
20383;SDS011;46458;50.966;7.002;2023-08-01T02:08:54;0.68;;;0.50;;
20383;SDS011;46458;50.966;7.002;2023-08-01T02:11:26;0.90;;;0.50;;
20383;SDS011;46458;50.966;7.002;2023-08-01T02:13:55;0.57;;;0.50;;
20383;SDS011;46458;50.966;7.002;2023-08-01T02:16:23;0.68;;;0.57;;
20383;SDS011;46458;50.966;7.002;2023-08-01T02:18:55;0.65;;;0.40;;
20383;SDS011;46458;50.966;7.002;2023-08-01T02:21:24;0.60;;;0.40;;
20383;SDS011;46458;50.966;7.002;2023-08-01T02:23:55;1.30;;;0.65;;
20383;SDS011;46458;50.966;7.002;2023-08-01T02:26:24;0.50;;;0.50;;
20383;SDS011;46458;50.966;7.002;2023-08-01T02:28:54;2.55;;;0.60;;
20383;SDS011;46458;50.966;7.002;2023-08-01T02:31:23;0.88;;;0.65;;
20383;SDS011;46458;50.966;7.002;2023-08-01T02:33:52;1.15;;;0.73;;
20383;SDS011;46458;50.966;7.002;2023-08-01T02:36:21;0.60;;;0.60;;
20383;SDS011;46458;50.966;7.002;2023-08-01T02:38:50;1.45;;;0.80;;
20383;SDS011;46458;50.966;7.002;2023-08-01T02:41:23;1.33;;;0.70;;
20383;SDS011;46458;50.966;7.002;2023-08-01T02:43:52;1.10;;;0.80;;
20383;SDS011;46458;50.966;7.002;2023-08-01T02:46:21;1.10;;;0.80;;
20383;SDS011;46458;50.966;7.002;2023-08-01T02:48:49;1.58;;;0.80;;
20383;SDS011;46458;50.966;7.002;2023-08-01T02:51:18;0.70;;;0.60;;
20383;SDS011;46458;50.966;7.002;2023-08-01T02:53:47;0.75;;;0.75;;
20383;SDS011;46458;50.966;7.002;2023-08-01T02:56:16;1.73;;;0.77;;
20383;SDS011;46458;50.966;7.002;2023-08-01T02:58:48;0.88;;;0.70;;
20383;SDS011;46458;50.966;7.002;2023-08-01T03:01:20;0.70;;;0.60;;
20383;SDS011;46458;50.966;7.002;2023-08-01T03:03:49;0.60;;;0.60;;
20383;SDS011;46458;50.966;7.002;2023-08-01T03:06:21;2.72;;;0.70;;
20383;SDS011;46458;50.966;7.002;2023-08-01T03:08:52;1.30;;;0.75;;
20383;SDS011;46458;50.966;7.002;2023-08-01T03:11:22;1.90;;;0.80;;
20383;SDS011;46458;50.966;7.002;2023-08-01T03:13:53;1.45;;;0.88;;
20383;SDS011;46458;50.966;7.002;2023-08-01T03:16:22;2.55;;;1.00;;
20383;SDS011;46458;50.966;7.002;2023-08-01T03:18:54;1.50;;;1.40;;
20383;SDS011;46458;50.966;7.002;2023-08-01T03:21:25;1.45;;;1.10;;
20383;SDS011;46458;50.966;7.002;2023-08-01T03:23:58;1.67;;;1.08;;
20383;SDS011;46458;50.966;7.002;2023-08-01T03:26:36;1.45;;;1.20;;
20383;SDS011;46458;50.966;7.002;2023-08-01T03:29:07;1.50;;;1.02;;
20383;SDS011;46458;50.966;7.002;2023-08-01T03:31:36;2.75;;;1.15;;
20383;SDS011;46458;50.966;7.002;2023-08-01T03:34:05;2.38;;;1.35;;
20383;SDS011;46458;50.966;7.002;2023-08-01T03:36:35;4.43;;;1.35;;
20383;SDS011;46458;50.966;7.002;2023-08-01T03:39:04;1.40;;;1.20;;
20383;SDS011;46458;50.966;7.002;2023-08-01T03:41:35;2.30;;;1.45;;
20383;SDS011;46458;50.966;7.002;2023-08-01T03:44:07;1.95;;;1.65;;
20383;SDS011;46458;50.966;7.002;2023-08-01T03:46:36;2.78;;;1.73;;
20383;SDS011;46458;50.966;7.002;2023-08-01T03:49:05;1.98;;;1.80;;
20383;SDS011;46458;50.966;7.002;2023-08-01T03:51:34;3.88;;;1.98;;
20383;SDS011;46458;50.966;7.002;2023-08-01T03:54:03;2.50;;;2.30;;
20383;SDS011;46458;50.966;7.002;2023-08-01T03:56:35;2.40;;;2.10;;
20383;SDS011;46458;50.966;7.002;2023-08-01T03:59:08;3.83;;;2.55;;
20383;SDS011;46458;50.966;7.002;2023-08-01T04:01:40;2.95;;;2.67;;
20383;SDS011;46458;50.966;7.002;2023-08-01T04:04:12;3.42;;;3.13;;
20383;SDS011;46458;50.966;7.002;2023-08-01T04:06:41;4.97;;;3.28;;
20383;SDS011;46458;50.966;7.002;2023-08-01T04:09:09;4.40;;;3.60;;
20383;SDS011;46458;50.966;7.002;2023-08-01T04:11:38;7.13;;;4.60;;
20383;SDS011;46458;50.966;7.002;2023-08-01T04:14:09;7.32;;;5.13;;
20383;SDS011;46458;50.966;7.002;2023-08-01T04:16:38;6.38;;;5.32;;
20383;SDS011;46458;50.966;7.002;2023-08-01T04:19:08;7.35;;;5.53;;
20383;SDS011;46458;50.966;7.002;2023-08-01T04:21:36;8.57;;;6.07;;
20383;SDS011;46458;50.966;7.002;2023-08-01T04:24:05;6.40;;;5.55;;
20383;SDS011;46458;50.966;7.002;2023-08-01T04:26:34;6.70;;;5.57;;
20383;SDS011;46458;50.966;7.002;2023-08-01T04:29:03;6.80;;;6.05;;
20383;SDS011;46458;50.966;7.002;2023-08-01T04:31:34;6.97;;;5.70;;
20383;SDS011;46458;50.966;7.002;2023-08-01T04:34:03;7.30;;;6.13;;
20383;SDS011;46458;50.966;7.002;2023-08-01T04:36:32;9.75;;;6.38;;
20383;SDS011;46458;50.966;7.002;2023-08-01T04:39:00;8.05;;;6.07;;
20383;SDS011;46458;50.966;7.002;2023-08-01T04:41:32;9.48;;;6.47;;
20383;SDS011;46458;50.966;7.002;2023-08-01T04:44:01;9.88;;;6.55;;
20383;SDS011;46458;50.966;7.002;2023-08-01T04:46:30;8.80;;;5.78;;
20383;SDS011;46458;50.966;7.002;2023-08-01T04:49:01;7.18;;;6.05;;
20383;SDS011;46458;50.966;7.002;2023-08-01T04:51:30;7.90;;;6.10;;
20383;SDS011;46458;50.966;7.002;2023-08-01T04:53:59;8.00;;;5.18;;
20383;SDS011;46458;50.966;7.002;2023-08-01T04:56:28;6.72;;;5.15;;
20383;SDS011;46458;50.966;7.002;2023-08-01T04:58:59;7.18;;;5.18;;
20383;SDS011;46458;50.966;7.002;2023-08-01T05:01:29;10.35;;;5.45;;
20383;SDS011;46458;50.966;7.002;2023-08-01T05:03:57;8.13;;;5.55;;
20383;SDS011;46458;50.966;7.002;2023-08-01T05:06:29;7.80;;;5.68;;
20383;SDS011;46458;50.966;7.002;2023-08-01T05:08:58;10.70;;;6.22;;
20383;SDS011;46458;50.966;7.002;2023-08-01T05:11:29;6.65;;;5.20;;
20383;SDS011;46458;50.966;7.002;2023-08-01T05:14:01;10.38;;;5.43;;
20383;SDS011;46458;50.966;7.002;2023-08-01T05:16:31;7.72;;;5.63;;
20383;SDS011;46458;50.966;7.002;2023-08-01T05:19:02;6.97;;;5.55;;
20383;SDS011;46458;50.966;7.002;2023-08-01T05:21:32;7.88;;;5.20;;
20383;SDS011;46458;50.966;7.002;2023-08-01T05:24:01;7.40;;;5.00;;
20383;SDS011;46458;50.966;7.002;2023-08-01T05:26:29;7.78;;;5.15;;
20383;SDS011;46458;50.966;7.002;2023-08-01T05:28:58;8.85;;;5.30;;
20383;SDS011;46458;50.966;7.002;2023-08-01T05:31:27;7.63;;;4.88;;
20383;SDS011;46458;50.966;7.002;2023-08-01T05:33:59;7.25;;;4.88;;
20383;SDS011;46458;50.966;7.002;2023-08-01T05:36:30;8.25;;;5.63;;
20383;SDS011;46458;50.966;7.002;2023-08-01T05:38:59;7.82;;;5.03;;
20383;SDS011;46458;50.966;7.002;2023-08-01T05:41:28;8.35;;;5.25;;
20383;SDS011;46458;50.966;7.002;2023-08-01T05:43:57;8.63;;;5.53;;
20383;SDS011;46458;50.966;7.002;2023-08-01T05:46:31;8.40;;;5.32;;
20383;SDS011;46458;50.966;7.002;2023-08-01T05:49:03;9.48;;;5.50;;
20383;SDS011;46458;50.966;7.002;2023-08-01T05:51:31;8.48;;;4.57;;
20383;SDS011;46458;50.966;7.002;2023-08-01T05:54:00;6.75;;;4.90;;
20383;SDS011;46458;50.966;7.002;2023-08-01T05:56:29;7.70;;;5.00;;
20383;SDS011;46458;50.966;7.002;2023-08-01T05:58:58;9.77;;;4.88;;
20383;SDS011;46458;50.966;7.002;2023-08-01T06:01:27;7.13;;;4.53;;
20383;SDS011;46458;50.966;7.002;2023-08-01T06:03:55;6.63;;;4.10;;
20383;SDS011;46458;50.966;7.002;2023-08-01T06:06:30;6.93;;;4.50;;
20383;SDS011;46458;50.966;7.002;2023-08-01T06:08:59;8.00;;;4.35;;
20383;SDS011;46458;50.966;7.002;2023-08-01T06:11:27;8.70;;;5.03;;
20383;SDS011;46458;50.966;7.002;2023-08-01T06:13:58;8.25;;;4.47;;
20383;SDS011;46458;50.966;7.002;2023-08-01T06:16:27;7.60;;;4.65;;
20383;SDS011;46458;50.966;7.002;2023-08-01T06:18:56;7.82;;;4.78;;
20383;SDS011;46458;50.966;7.002;2023-08-01T06:21:25;6.82;;;4.15;;
20383;SDS011;46458;50.966;7.002;2023-08-01T06:23:56;7.28;;;4.35;;
20383;SDS011;46458;50.966;7.002;2023-08-01T06:26:28;6.68;;;4.50;;
20383;SDS011;46458;50.966;7.002;2023-08-01T06:28:57;5.13;;;4.30;;
20383;SDS011;46458;50.966;7.002;2023-08-01T06:31:26;7.35;;;4.43;;
20383;SDS011;46458;50.966;7.002;2023-08-01T06:33:55;5.63;;;4.10;;
20383;SDS011;46458;50.966;7.002;2023-08-01T06:36:23;6.75;;;4.10;;
20383;SDS011;46458;50.966;7.002;2023-08-01T06:38:52;7.15;;;4.95;;
20383;SDS011;46458;50.966;7.002;2023-08-01T06:41:23;5.20;;;4.38;;
20383;SDS011;46458;50.966;7.002;2023-08-01T06:43:52;7.65;;;4.25;;
20383;SDS011;46458;50.966;7.002;2023-08-01T06:46:22;7.82;;;4.90;;
20383;SDS011;46458;50.966;7.002;2023-08-01T06:48:51;5.93;;;4.88;;
20383;SDS011;46458;50.966;7.002;2023-08-01T06:51:19;6.95;;;4.53;;
20383;SDS011;46458;50.966;7.002;2023-08-01T06:53:51;6.15;;;4.95;;
20383;SDS011;46458;50.966;7.002;2023-08-01T06:56:20;12.95;;;4.50;;
20383;SDS011;46458;50.966;7.002;2023-08-01T06:58:57;10.02;;;5.00;;
20383;SDS011;46458;50.966;7.002;2023-08-01T07:01:26;7.55;;;5.22;;
20383;SDS011;46458;50.966;7.002;2023-08-01T07:03:56;5.68;;;4.38;;
20383;SDS011;46458;50.966;7.002;2023-08-01T07:06:25;5.32;;;4.38;;
20383;SDS011;46458;50.966;7.002;2023-08-01T07:08:54;9.55;;;4.90;;
20383;SDS011;46458;50.966;7.002;2023-08-01T07:11:23;8.23;;;4.95;;
20383;SDS011;46458;50.966;7.002;2023-08-01T07:13:54;6.45;;;4.32;;
20383;SDS011;46458;50.966;7.002;2023-08-01T07:16:29;9.32;;;4.95;;
20383;SDS011;46458;50.966;7.002;2023-08-01T07:18:59;10.05;;;5.18;;
20383;SDS011;46458;50.966;7.002;2023-08-01T07:21:28;10.02;;;5.13;;
20383;SDS011;46458;50.966;7.002;2023-08-01T07:23:57;9.73;;;4.70;;
20383;SDS011;46458;50.966;7.002;2023-08-01T07:26:28;6.82;;;4.75;;
20383;SDS011;46458;50.966;7.002;2023-08-01T07:29:02;9.82;;;4.45;;
20383;SDS011;46458;50.966;7.002;2023-08-01T07:31:33;8.32;;;5.03;;
20383;SDS011;46458;50.966;7.002;2023-08-01T07:34:02;10.43;;;5.05;;
20383;SDS011;46458;50.966;7.002;2023-08-01T07:36:31;7.63;;;4.70;;
20383;SDS011;46458;50.966;7.002;2023-08-01T07:39:00;7.90;;;4.93;;
20383;SDS011;46458;50.966;7.002;2023-08-01T07:41:29;8.60;;;5.28;;
20383;SDS011;46458;50.966;7.002;2023-08-01T07:44:03;9.15;;;5.32;;
20383;SDS011;46458;50.966;7.002;2023-08-01T07:46:32;7.25;;;4.65;;
20383;SDS011;46458;50.966;7.002;2023-08-01T07:49:01;7.75;;;4.57;;
20383;SDS011;46458;50.966;7.002;2023-08-01T07:51:30;6.78;;;5.13;;
20383;SDS011;46458;50.966;7.002;2023-08-01T07:53:59;6.50;;;4.32;;
20383;SDS011;46458;50.966;7.002;2023-08-01T07:56:28;7.47;;;4.63;;
20383;SDS011;46458;50.966;7.002;2023-08-01T07:58:57;12.23;;;5.22;;
20383;SDS011;46458;50.966;7.002;2023-08-01T08:01:31;8.48;;;4.68;;
20383;SDS011;46458;50.966;7.002;2023-08-01T08:04:02;6.95;;;4.38;;
20383;SDS011;46458;50.966;7.002;2023-08-01T08:06:34;7.78;;;4.47;;
20383;SDS011;46458;50.966;7.002;2023-08-01T08:09:03;6.07;;;4.03;;
20383;SDS011;46458;50.966;7.002;2023-08-01T08:11:42;6.03;;;4.15;;
20383;SDS011;46458;50.966;7.002;2023-08-01T08:14:14;10.57;;;4.72;;
20383;SDS011;46458;50.966;7.002;2023-08-01T08:16:42;6.68;;;3.90;;
20383;SDS011;46458;50.966;7.002;2023-08-01T08:19:14;9.73;;;4.40;;
20383;SDS011;46458;50.966;7.002;2023-08-01T08:21:46;9.07;;;5.00;;
20383;SDS011;46458;50.966;7.002;2023-08-01T08:24:14;7.68;;;4.40;;
20383;SDS011;46458;50.966;7.002;2023-08-01T08:26:43;7.55;;;4.50;;
20383;SDS011;46458;50.966;7.002;2023-08-01T08:29:15;6.95;;;4.40;;
20383;SDS011;46458;50.966;7.002;2023-08-01T08:31:44;7.10;;;4.65;;
20383;SDS011;46458;50.966;7.002;2023-08-01T08:34:12;6.88;;;4.38;;
20383;SDS011;46458;50.966;7.002;2023-08-01T08:36:41;8.75;;;4.38;;
20383;SDS011;46458;50.966;7.002;2023-08-01T08:39:14;7.70;;;4.57;;
20383;SDS011;46458;50.966;7.002;2023-08-01T08:41:46;6.68;;;4.32;;
20383;SDS011;46458;50.966;7.002;2023-08-01T08:44:22;5.82;;;3.97;;
20383;SDS011;46458;50.966;7.002;2023-08-01T08:46:55;7.15;;;4.20;;
20383;SDS011;46458;50.966;7.002;2023-08-01T08:49:32;7.45;;;4.38;;
20383;SDS011;46458;50.966;7.002;2023-08-01T08:52:01;7.03;;;4.07;;
20383;SDS011;46458;50.966;7.002;2023-08-01T08:54:31;8.38;;;4.50;;
20383;SDS011;46458;50.966;7.002;2023-08-01T08:57:01;7.28;;;3.83;;
20383;SDS011;46458;50.966;7.002;2023-08-01T08:59:39;6.72;;;4.10;;
20383;SDS011;46458;50.966;7.002;2023-08-01T09:02:09;9.48;;;4.20;;
20383;SDS011;46458;50.966;7.002;2023-08-01T09:04:38;6.88;;;4.05;;
20383;SDS011;46458;50.966;7.002;2023-08-01T09:07:07;6.93;;;4.10;;
20383;SDS011;46458;50.966;7.002;2023-08-01T09:09:37;7.22;;;4.38;;
20383;SDS011;46458;50.966;7.002;2023-08-01T09:12:06;6.03;;;4.28;;
20383;SDS011;46458;50.966;7.002;2023-08-01T09:14:40;7.30;;;4.47;;
20383;SDS011;46458;50.966;7.002;2023-08-01T09:17:09;6.65;;;3.47;;
20383;SDS011;46458;50.966;7.002;2023-08-01T09:19:43;7.18;;;3.72;;
20383;SDS011;46458;50.966;7.002;2023-08-01T09:22:16;4.20;;;3.40;;
20383;SDS011;46458;50.966;7.002;2023-08-01T09:24:51;5.90;;;3.40;;
20383;SDS011;46458;50.966;7.002;2023-08-01T09:27:21;6.47;;;3.35;;
20383;SDS011;46458;50.966;7.002;2023-08-01T09:29:53;5.68;;;3.05;;
20383;SDS011;46458;50.966;7.002;2023-08-01T09:32:33;6.32;;;3.30;;
20383;SDS011;46458;50.966;7.002;2023-08-01T09:35:02;4.90;;;3.00;;
20383;SDS011;46458;50.966;7.002;2023-08-01T09:37:38;5.82;;;3.38;;
20383;SDS011;46458;50.966;7.002;2023-08-01T09:40:08;5.80;;;3.13;;
20383;SDS011;46458;50.966;7.002;2023-08-01T09:42:37;6.40;;;3.10;;
20383;SDS011;46458;50.966;7.002;2023-08-01T09:45:13;6.90;;;3.60;;
20383;SDS011;46458;50.966;7.002;2023-08-01T09:47:43;6.13;;;3.30;;
20383;SDS011;46458;50.966;7.002;2023-08-01T09:50:19;5.47;;;3.20;;
20383;SDS011;46458;50.966;7.002;2023-08-01T09:52:49;4.30;;;3.10;;
20383;SDS011;46458;50.966;7.002;2023-08-01T09:55:18;4.97;;;3.22;;
20383;SDS011;46458;50.966;7.002;2023-08-01T09:57:53;6.03;;;3.42;;
20383;SDS011;46458;50.966;7.002;2023-08-01T10:00:30;7.45;;;3.30;;
20383;SDS011;46458;50.966;7.002;2023-08-01T10:03:06;6.78;;;3.20;;
20383;SDS011;46458;50.966;7.002;2023-08-01T10:05:35;4.25;;;2.78;;
20383;SDS011;46458;50.966;7.002;2023-08-01T10:08:06;6.60;;;2.80;;
20383;SDS011;46458;50.966;7.002;2023-08-01T10:10:36;6.15;;;3.00;;
20383;SDS011;46458;50.966;7.002;2023-08-01T10:13:06;3.45;;;2.78;;
20383;SDS011;46458;50.966;7.002;2023-08-01T10:15:40;4.20;;;2.90;;
20383;SDS011;46458;50.966;7.002;2023-08-01T10:18:12;3.20;;;2.58;;
20383;SDS011;46458;50.966;7.002;2023-08-01T10:20:41;5.50;;;3.30;;
20383;SDS011;46458;50.966;7.002;2023-08-01T10:23:11;3.92;;;2.63;;
20383;SDS011;46458;50.966;7.002;2023-08-01T10:25:49;5.60;;;2.85;;
20383;SDS011;46458;50.966;7.002;2023-08-01T10:28:18;5.28;;;3.00;;
20383;SDS011;46458;50.966;7.002;2023-08-01T10:33:41;6.53;;;2.88;;
20383;SDS011;46458;50.966;7.002;2023-08-01T10:36:15;6.65;;;2.80;;
20383;SDS011;46458;50.966;7.002;2023-08-01T10:38:45;4.35;;;3.00;;
20383;SDS011;46458;50.966;7.002;2023-08-01T10:41:22;4.35;;;2.95;;
20383;SDS011;46458;50.966;7.002;2023-08-01T10:44:03;4.85;;;3.30;;
20383;SDS011;46458;50.966;7.002;2023-08-01T10:46:49;4.65;;;3.00;;
20383;SDS011;46458;50.966;7.002;2023-08-01T10:49:20;5.78;;;3.22;;
20383;SDS011;46458;50.966;7.002;2023-08-01T10:52:00;5.72;;;3.95;;
20383;SDS011;46458;50.966;7.002;2023-08-01T10:54:29;4.75;;;3.00;;
20383;SDS011;46458;50.966;7.002;2023-08-01T10:56:59;6.40;;;3.10;;
20383;SDS011;46458;50.966;7.002;2023-08-01T10:59:28;5.60;;;3.30;;
20383;SDS011;46458;50.966;7.002;2023-08-01T11:02:00;4.95;;;3.20;;
20383;SDS011;46458;50.966;7.002;2023-08-01T11:04:29;3.80;;;2.50;;
20383;SDS011;46458;50.966;7.002;2023-08-01T11:06:58;4.55;;;2.20;;
20383;SDS011;46458;50.966;7.002;2023-08-01T11:09:27;3.20;;;2.22;;
20383;SDS011;46458;50.966;7.002;2023-08-01T11:11:59;3.80;;;2.15;;
20383;SDS011;46458;50.966;7.002;2023-08-01T11:14:28;4.75;;;2.72;;
20383;SDS011;46458;50.966;7.002;2023-08-01T11:16:57;4.97;;;2.42;;
20383;SDS011;46458;50.966;7.002;2023-08-01T11:19:29;4.00;;;2.63;;
20383;SDS011;46458;50.966;7.002;2023-08-01T11:21:59;4.38;;;2.47;;
20383;SDS011;46458;50.966;7.002;2023-08-01T11:24:37;4.55;;;2.00;;
20383;SDS011;46458;50.966;7.002;2023-08-01T11:27:06;5.35;;;2.10;;
20383;SDS011;46458;50.966;7.002;2023-08-01T11:29:38;5.57;;;2.80;;
20383;SDS011;46458;50.966;7.002;2023-08-01T11:32:11;5.55;;;2.67;;
20383;SDS011;46458;50.966;7.002;2023-08-01T11:34:40;3.45;;;2.50;;
20383;SDS011;46458;50.966;7.002;2023-08-01T11:37:09;5.53;;;1.92;;
20383;SDS011;46458;50.966;7.002;2023-08-01T11:39:43;6.40;;;2.13;;
20383;SDS011;46458;50.966;7.002;2023-08-01T11:42:14;4.90;;;2.30;;
20383;SDS011;46458;50.966;7.002;2023-08-01T11:44:44;4.57;;;2.40;;
20383;SDS011;46458;50.966;7.002;2023-08-01T11:47:15;5.20;;;2.50;;
20383;SDS011;46458;50.966;7.002;2023-08-01T11:49:50;3.15;;;1.88;;
20383;SDS011;46458;50.966;7.002;2023-08-01T11:52:23;3.55;;;2.42;;
20383;SDS011;46458;50.966;7.002;2023-08-01T11:54:52;4.53;;;2.40;;
20383;SDS011;46458;50.966;7.002;2023-08-01T11:57:25;4.45;;;1.95;;
20383;SDS011;46458;50.966;7.002;2023-08-01T11:59:54;3.78;;;2.10;;
20383;SDS011;46458;50.966;7.002;2023-08-01T12:02:27;3.75;;;2.25;;
20383;SDS011;46458;50.966;7.002;2023-08-01T12:04:57;3.05;;;2.22;;
20383;SDS011;46458;50.966;7.002;2023-08-01T12:07:26;6.32;;;2.33;;
20383;SDS011;46458;50.966;7.002;2023-08-01T12:09:55;3.67;;;2.00;;
20383;SDS011;46458;50.966;7.002;2023-08-01T12:12:31;3.10;;;2.10;;
20383;SDS011;46458;50.966;7.002;2023-08-01T12:14:59;3.88;;;1.95;;
20383;SDS011;46458;50.966;7.002;2023-08-01T12:17:31;4.32;;;2.05;;
20383;SDS011;46458;50.966;7.002;2023-08-01T12:20:02;3.60;;;1.90;;
20383;SDS011;46458;50.966;7.002;2023-08-01T12:22:32;7.97;;;2.33;;
20383;SDS011;46458;50.966;7.002;2023-08-01T12:25:01;5.78;;;2.05;;
20383;SDS011;46458;50.966;7.002;2023-08-01T12:27:30;3.72;;;2.25;;
20383;SDS011;46458;50.966;7.002;2023-08-01T12:29:58;6.53;;;2.17;;
20383;SDS011;46458;50.966;7.002;2023-08-01T12:32:27;3.38;;;2.15;;
20383;SDS011;46458;50.966;7.002;2023-08-01T12:35:00;4.20;;;1.98;;
20383;SDS011;46458;50.966;7.002;2023-08-01T12:37:29;2.80;;;1.77;;
20383;SDS011;46458;50.966;7.002;2023-08-01T12:39:58;4.10;;;2.17;;
20383;SDS011;46458;50.966;7.002;2023-08-01T12:42:29;3.85;;;1.90;;
20383;SDS011;46458;50.966;7.002;2023-08-01T12:44:58;4.13;;;2.17;;
20383;SDS011;46458;50.966;7.002;2023-08-01T12:47:27;4.65;;;2.47;;
20383;SDS011;46458;50.966;7.002;2023-08-01T12:49:58;4.38;;;2.47;;
20383;SDS011;46458;50.966;7.002;2023-08-01T12:52:28;5.50;;;2.65;;
20383;SDS011;46458;50.966;7.002;2023-08-01T12:54:57;5.72;;;2.85;;
20383;SDS011;46458;50.966;7.002;2023-08-01T12:57:26;5.60;;;3.10;;
20383;SDS011;46458;50.966;7.002;2023-08-01T12:59:55;4.75;;;3.00;;
20383;SDS011;46458;50.966;7.002;2023-08-01T13:02:24;5.45;;;3.08;;
20383;SDS011;46458;50.966;7.002;2023-08-01T13:04:55;5.30;;;3.53;;
20383;SDS011;46458;50.966;7.002;2023-08-01T13:07:24;6.72;;;3.53;;
20383;SDS011;46458;50.966;7.002;2023-08-01T13:09:53;5.82;;;3.22;;
20383;SDS011;46458;50.966;7.002;2023-08-01T13:12:21;6.80;;;3.42;;
20383;SDS011;46458;50.966;7.002;2023-08-01T13:14:51;5.90;;;3.00;;
20383;SDS011;46458;50.966;7.002;2023-08-01T13:17:20;4.68;;;3.50;;
20383;SDS011;46458;50.966;7.002;2023-08-01T13:19:48;3.83;;;3.10;;
20383;SDS011;46458;50.966;7.002;2023-08-01T13:22:20;5.13;;;3.20;;
20383;SDS011;46458;50.966;7.002;2023-08-01T13:24:49;7.85;;;3.08;;
20383;SDS011;46458;50.966;7.002;2023-08-01T13:27:20;7.57;;;2.95;;
20383;SDS011;46458;50.966;7.002;2023-08-01T13:29:52;4.70;;;2.65;;
20383;SDS011;46458;50.966;7.002;2023-08-01T13:32:20;4.13;;;2.75;;
20383;SDS011;46458;50.966;7.002;2023-08-01T13:34:49;5.38;;;3.00;;
20383;SDS011;46458;50.966;7.002;2023-08-01T13:37:21;4.25;;;2.63;;
20383;SDS011;46458;50.966;7.002;2023-08-01T13:39:50;6.68;;;2.85;;
20383;SDS011;46458;50.966;7.002;2023-08-01T13:42:18;3.30;;;2.92;;
20383;SDS011;46458;50.966;7.002;2023-08-01T13:44:47;4.55;;;3.00;;
20383;SDS011;46458;50.966;7.002;2023-08-01T13:47:17;4.55;;;2.85;;
20383;SDS011;46458;50.966;7.002;2023-08-01T13:49:48;5.18;;;3.20;;
20383;SDS011;46458;50.966;7.002;2023-08-01T13:52:17;4.88;;;2.92;;
20383;SDS011;46458;50.966;7.002;2023-08-01T13:54:48;4.32;;;3.10;;
20383;SDS011;46458;50.966;7.002;2023-08-01T13:57:18;4.80;;;2.92;;
20383;SDS011;46458;50.966;7.002;2023-08-01T13:59:49;6.00;;;3.10;;
20383;SDS011;46458;50.966;7.002;2023-08-01T14:02:18;6.60;;;3.05;;
20383;SDS011;46458;50.966;7.002;2023-08-01T14:04:50;5.60;;;2.85;;
20383;SDS011;46458;50.966;7.002;2023-08-01T14:07:19;4.72;;;2.35;;
20383;SDS011;46458;50.966;7.002;2023-08-01T14:09:51;2.75;;;2.55;;
20383;SDS011;46458;50.966;7.002;2023-08-01T14:12:19;4.20;;;2.40;;
20383;SDS011;46458;50.966;7.002;2023-08-01T14:14:50;4.43;;;2.85;;
20383;SDS011;46458;50.966;7.002;2023-08-01T14:17:18;4.22;;;2.60;;
20383;SDS011;46458;50.966;7.002;2023-08-01T14:19:47;5.45;;;3.30;;
20383;SDS011;46458;50.966;7.002;2023-08-01T14:22:18;5.93;;;2.97;;
20383;SDS011;46458;50.966;7.002;2023-08-01T14:24:52;3.92;;;3.10;;
20383;SDS011;46458;50.966;7.002;2023-08-01T14:27:24;5.35;;;3.08;;
20383;SDS011;46458;50.966;7.002;2023-08-01T14:29:53;4.28;;;3.05;;
20383;SDS011;46458;50.966;7.002;2023-08-01T14:32:22;7.03;;;3.03;;
20383;SDS011;46458;50.966;7.002;2023-08-01T14:34:53;6.85;;;2.50;;
20383;SDS011;46458;50.966;7.002;2023-08-01T14:37:22;6.45;;;2.92;;
20383;SDS011;46458;50.966;7.002;2023-08-01T14:39:54;4.00;;;2.47;;
20383;SDS011;46458;50.966;7.002;2023-08-01T14:42:23;5.05;;;2.47;;
20383;SDS011;46458;50.966;7.002;2023-08-01T14:44:52;5.43;;;2.70;;
20383;SDS011;46458;50.966;7.002;2023-08-01T14:47:22;5.93;;;2.88;;
20383;SDS011;46458;50.966;7.002;2023-08-01T14:49:51;6.18;;;2.45;;
20383;SDS011;46458;50.966;7.002;2023-08-01T14:52:21;4.03;;;2.10;;
20383;SDS011;46458;50.966;7.002;2023-08-01T14:54:50;4.30;;;2.15;;
20383;SDS011;46458;50.966;7.002;2023-08-01T14:57:22;4.63;;;2.17;;
20383;SDS011;46458;50.966;7.002;2023-08-01T14:59:50;4.30;;;2.30;;
20383;SDS011;46458;50.966;7.002;2023-08-01T15:02:19;5.22;;;2.60;;
20383;SDS011;46458;50.966;7.002;2023-08-01T15:04:56;3.50;;;2.00;;
20383;SDS011;46458;50.966;7.002;2023-08-01T15:07:25;3.67;;;1.80;;
20383;SDS011;46458;50.966;7.002;2023-08-01T15:09:54;3.78;;;2.20;;